createdAt,value
2022-08-04T00:00:38.264Z,27.5
2022-08-04T00:01:38.289Z,27.4
2022-08-04T00:02:38.281Z,27.3
2022-08-04T00:03:38.263Z,27.3
2022-08-04T00:04:38.286Z,27.2
2022-08-04T00:05:38.270Z,27.2
2022-08-04T00:06:38.270Z,27.1
2022-08-04T00:08:38.275Z,27.1
2022-08-04T00:09:38.277Z,27.1
2022-08-04T00:10:38.268Z,27.1
2022-08-04T00:11:38.269Z,27.1
2022-08-04T00:12:39.784Z,27.1
2022-08-04T00:13:38.277Z,27.1
2022-08-04T00:14:38.268Z,27.1
2022-08-04T00:15:38.276Z,27.1
2022-08-04T00:16:38.889Z,27.1
2022-08-04T00:17:38.276Z,27.1
2022-08-04T00:18:38.271Z,27.1
2022-08-04T00:19:38.273Z,27.1
2022-08-04T00:20:38.278Z,27.1
2022-08-04T00:21:38.278Z,27.1
2022-08-04T00:22:38.263Z,27.2
2022-08-04T00:24:10.536Z,27.2
2022-08-04T00:24:38.266Z,27.2
2022-08-04T00:25:38.270Z,27.2
2022-08-04T00:26:38.273Z,27.2
2022-08-04T00:27:38.274Z,27.1
2022-08-04T00:28:38.295Z,27
2022-08-04T00:29:38.277Z,27
2022-08-04T00:30:38.301Z,27
2022-08-04T00:31:56.015Z,26.9
2022-08-04T00:32:38.288Z,26.8
2022-08-04T00:33:38.279Z,26.8
2022-08-04T00:34:38.282Z,26.8
2022-08-04T00:35:38.275Z,26.8
2022-08-04T00:36:38.293Z,26.8
2022-08-04T00:37:38.280Z,26.8
2022-08-04T00:38:38.281Z,26.8
2022-08-04T00:40:38.281Z,26.8
2022-08-04T00:41:52.975Z,26.8
2022-08-04T00:42:38.284Z,26.8
2022-08-04T00:43:38.276Z,26.8
2022-08-04T00:44:38.277Z,26.8
2022-08-04T00:46:14.955Z,26.8
2022-08-04T00:46:38.284Z,26.8
2022-08-04T00:47:38.286Z,26.7
2022-08-04T00:48:38.286Z,26.7
2022-08-04T00:49:38.281Z,26.7
2022-08-04T00:50:38.293Z,26.7
2022-08-04T00:51:38.282Z,26.7
2022-08-04T00:52:38.300Z,26.7
2022-08-04T00:53:38.290Z,26.7
2022-08-04T00:55:38.290Z,26.7
2022-08-04T00:56:38.284Z,26.8
2022-08-04T00:57:38.282Z,26.8
2022-08-04T00:58:38.286Z,26.8
2022-08-04T00:59:38.287Z,26.7
2022-08-04T01:01:38.350Z,26.8
2022-08-04T01:02:38.286Z,26.7
2022-08-04T01:03:38.289Z,26.7
2022-08-04T01:04:38.284Z,26.7
2022-08-04T01:05:38.438Z,26.6
2022-08-04T01:06:38.290Z,26.6
2022-08-04T01:07:38.296Z,26.6
2022-08-04T01:08:38.283Z,26.5
2022-08-04T01:09:38.307Z,26.5
2022-08-04T01:10:38.312Z,26.6
2022-08-04T01:11:57.124Z,26.6
2022-08-04T01:12:38.293Z,26.6
2022-08-04T01:13:38.294Z,26.7
2022-08-04T01:14:38.293Z,26.7
2022-08-04T01:15:56.393Z,26.8
2022-08-04T01:16:38.290Z,26.8
2022-08-04T01:17:38.288Z,26.8
2022-08-04T01:18:38.296Z,26.8
2022-08-04T01:19:38.310Z,26.8
2022-08-04T01:20:38.292Z,26.9
2022-08-04T01:22:38.293Z,26.9
2022-08-04T01:23:38.293Z,26.9
2022-08-04T01:24:38.303Z,26.9
2022-08-04T01:25:39.196Z,26.8
2022-08-04T01:26:43.692Z,26.8
2022-08-04T01:27:38.300Z,26.8
2022-08-04T01:28:42.890Z,26.8
2022-08-04T01:29:47.135Z,26.7
2022-08-04T01:30:38.309Z,26.6
2022-08-04T01:31:38.293Z,26.4
2022-08-04T01:32:38.301Z,26.3
2022-08-04T01:34:03.209Z,26.2
2022-08-04T01:34:38.292Z,26.2
2022-08-04T01:35:47.505Z,26.3
2022-08-04T01:37:38.300Z,26.4
2022-08-04T01:38:38.299Z,26.4
2022-08-04T01:39:38.290Z,26.5
2022-08-04T01:40:38.303Z,26.5
2022-08-04T01:41:38.314Z,26.5
2022-08-04T01:43:38.302Z,26.5
2022-08-04T01:44:38.306Z,26.6
2022-08-04T01:46:38.314Z,26.6
2022-08-04T01:47:38.295Z,26.6
2022-08-04T01:48:38.299Z,26.6
2022-08-04T01:49:40.639Z,26.6
2022-08-04T01:50:38.293Z,26.7
2022-08-04T01:51:38.306Z,26.7
2022-08-04T01:52:38.297Z,26.7
2022-08-04T01:53:38.295Z,26.6
2022-08-04T01:54:38.296Z,26.6
2022-08-04T01:55:54.362Z,26.6
2022-08-04T01:56:38.300Z,26.6
2022-08-04T01:57:39.463Z,26.6
2022-08-04T01:58:38.304Z,26.6
2022-08-04T02:00:38.297Z,26.4
2022-08-04T02:01:38.399Z,26.4
2022-08-04T02:02:38.412Z,26.4
2022-08-04T02:04:38.300Z,26.4
2022-08-04T02:06:03.786Z,26.4
2022-08-04T02:06:38.312Z,26.4
2022-08-04T02:07:38.303Z,26.4
2022-08-04T02:08:38.302Z,26.5
2022-08-04T02:09:54.802Z,26.5
2022-08-04T02:10:38.306Z,26.5
2022-08-04T02:11:38.339Z,26.5
2022-08-04T02:12:38.305Z,26.5
2022-08-04T02:13:38.316Z,26.5
2022-08-04T02:14:38.311Z,26.5
2022-08-04T02:16:38.314Z,26.5
2022-08-04T02:17:38.312Z,26.5
2022-08-04T02:18:38.304Z,26.6
2022-08-04T02:19:38.308Z,26.6
2022-08-04T02:20:38.308Z,26.5
2022-08-04T02:21:42.056Z,26.6
2022-08-04T02:22:38.692Z,26.6
2022-08-04T02:23:38.314Z,26.6
2022-08-04T02:25:38.317Z,26.5
2022-08-04T02:26:38.313Z,26.5
2022-08-04T02:28:00.683Z,26.5
2022-08-04T02:28:38.325Z,26.5
2022-08-04T02:29:38.317Z,26.5
2022-08-04T02:30:38.379Z,26.5
2022-08-04T02:31:38.337Z,26.5
2022-08-04T02:32:38.313Z,26.5
2022-08-04T02:33:38.318Z,26.5
2022-08-04T02:34:38.315Z,26.5
2022-08-04T02:35:38.317Z,26.5
2022-08-04T02:36:38.324Z,26.5
2022-08-04T02:37:38.311Z,26.5
2022-08-04T02:38:38.311Z,26.4
2022-08-04T02:39:48.967Z,26.4
2022-08-04T02:40:38.319Z,26.4
2022-08-04T02:41:38.326Z,26.4
2022-08-04T02:42:38.312Z,26.4
2022-08-04T02:43:50.914Z,26.4
2022-08-04T02:44:38.316Z,26.4
2022-08-04T02:46:38.326Z,26.4
2022-08-04T02:48:29.593Z,26.4
2022-08-04T02:48:38.327Z,26.4
2022-08-04T02:49:39.172Z,26.4
2022-08-04T02:50:38.316Z,26.4
2022-08-04T02:51:38.327Z,26.4
2022-08-04T02:52:38.337Z,26.4
2022-08-04T02:53:38.326Z,26.3
2022-08-04T02:54:38.326Z,26.3
2022-08-04T02:55:38.327Z,26.3
2022-08-04T02:56:38.684Z,26.3
2022-08-04T02:57:38.328Z,26.3
2022-08-04T02:58:38.329Z,26.3
2022-08-04T02:59:38.333Z,26.3
2022-08-04T03:00:38.322Z,26.3
2022-08-04T03:01:57.204Z,26.3
2022-08-04T03:02:38.331Z,26.3
2022-08-04T03:03:38.318Z,26.3
2022-08-04T03:04:38.330Z,26.3
2022-08-04T03:05:57.625Z,26.3
2022-08-04T03:06:38.327Z,26.2
2022-08-04T03:07:38.333Z,26.3
2022-08-04T03:08:38.324Z,26.3
2022-08-04T03:09:38.340Z,26.2
2022-08-04T03:10:38.329Z,26.2
2022-08-04T03:11:38.339Z,26.2
2022-08-04T03:12:38.330Z,26.2
2022-08-04T03:13:38.332Z,26.2
2022-08-04T03:14:38.330Z,26.2
2022-08-04T03:15:38.336Z,26.2
2022-08-04T03:16:38.986Z,26.2
2022-08-04T03:17:38.345Z,26.2
2022-08-04T03:18:38.326Z,26.1
2022-08-04T03:19:38.338Z,26.1
2022-08-04T03:20:38.331Z,26.1
2022-08-04T03:21:38.341Z,26.1
2022-08-04T03:22:53.752Z,26.1
2022-08-04T03:23:38.378Z,26.1
2022-08-04T03:24:38.339Z,26.1
2022-08-04T03:25:57.249Z,26.1
2022-08-04T03:26:38.331Z,26.1
2022-08-04T03:28:38.330Z,26
2022-08-04T03:29:38.339Z,26
2022-08-04T03:30:38.340Z,26
2022-08-04T03:31:38.335Z,26
2022-08-04T03:32:38.341Z,26
2022-08-04T03:33:38.332Z,26
2022-08-04T03:34:38.334Z,26
2022-08-04T03:35:38.340Z,26
2022-08-04T03:36:38.341Z,26
2022-08-04T03:37:38.330Z,26
2022-08-04T03:38:38.336Z,25.9
2022-08-04T03:39:38.459Z,25.9
2022-08-04T03:40:38.341Z,25.9
2022-08-04T03:41:55.148Z,25.9
2022-08-04T03:42:38.343Z,25.9
2022-08-04T03:43:58.808Z,25.9
2022-08-04T03:44:38.343Z,25.8
2022-08-04T03:45:38.335Z,25.8
2022-08-04T03:46:38.340Z,25.8
2022-08-04T03:47:42.190Z,25.8
2022-08-04T03:48:38.369Z,25.8
2022-08-04T03:49:38.343Z,25.7
2022-08-04T03:50:41.419Z,25.7
2022-08-04T03:51:38.348Z,25.7
2022-08-04T03:52:38.350Z,25.7
2022-08-04T03:53:38.346Z,25.7
2022-08-04T03:54:38.339Z,25.7
2022-08-04T03:55:38.336Z,25.7
2022-08-04T03:56:38.358Z,25.7
2022-08-04T03:57:38.334Z,25.7
2022-08-04T03:58:38.356Z,25.7
2022-08-04T03:59:38.343Z,25.7
2022-08-04T04:00:38.344Z,25.7
2022-08-04T04:02:38.426Z,25.7
2022-08-04T04:03:38.344Z,25.7
2022-08-04T04:04:38.342Z,25.7
2022-08-04T04:05:58.776Z,25.7
2022-08-04T04:07:38.352Z,25.7
2022-08-04T04:08:38.349Z,25.7
2022-08-04T04:09:50.898Z,25.7
2022-08-04T04:10:38.354Z,25.7
2022-08-04T04:11:56.720Z,25.7
2022-08-04T04:12:38.351Z,25.7
2022-08-04T04:13:38.343Z,25.7
2022-08-04T04:14:38.343Z,25.7
2022-08-04T04:15:38.375Z,25.7
2022-08-04T04:16:38.354Z,25.6
2022-08-04T04:17:38.350Z,25.6
2022-08-04T04:18:38.358Z,25.7
2022-08-04T04:19:38.355Z,25.6
2022-08-04T04:20:38.354Z,25.6
2022-08-04T04:21:38.350Z,25.6
2022-08-04T04:22:38.646Z,25.6
2022-08-04T04:23:38.346Z,25.6
2022-08-04T04:24:38.350Z,25.6
2022-08-04T04:25:38.360Z,25.6
2022-08-04T04:26:38.373Z,25.6
2022-08-04T04:27:38.358Z,25.6
2022-08-04T04:28:44.677Z,25.6
2022-08-04T04:29:38.347Z,25.6
2022-08-04T04:30:38.353Z,25.6
2022-08-04T04:31:38.354Z,25.6
2022-08-04T04:32:38.364Z,25.6
2022-08-04T04:33:38.353Z,25.7
2022-08-04T04:34:41.704Z,25.7
2022-08-04T04:35:38.349Z,25.7
2022-08-04T04:36:38.361Z,25.7
2022-08-04T04:37:38.366Z,25.7
2022-08-04T04:38:38.346Z,25.7
2022-08-04T04:39:38.446Z,25.7
2022-08-04T04:40:38.371Z,25.7
2022-08-04T04:41:38.351Z,25.7
2022-08-04T04:42:38.383Z,25.7
2022-08-04T04:43:51.352Z,25.8
2022-08-04T04:44:38.359Z,25.8
2022-08-04T04:45:38.358Z,25.8
2022-08-04T04:48:03.514Z,25.9
2022-08-04T04:48:38.360Z,25.9
2022-08-04T04:49:38.366Z,25.9
2022-08-04T04:50:38.361Z,25.9
2022-08-04T04:51:38.355Z,26
2022-08-04T04:52:38.360Z,26
2022-08-04T04:53:38.372Z,26
2022-08-04T04:54:38.376Z,26
2022-08-04T04:55:38.375Z,26.1
2022-08-04T04:56:38.364Z,26.1
2022-08-04T04:57:54.748Z,26.1
2022-08-04T04:58:38.369Z,26.2
2022-08-04T04:59:38.359Z,26.2
2022-08-04T05:00:38.361Z,26.2
2022-08-04T05:01:38.357Z,26.1
2022-08-04T05:02:38.365Z,26.1
2022-08-04T05:03:38.358Z,26.1
2022-08-04T05:04:38.448Z,26.1
2022-08-04T05:05:38.365Z,26.2
2022-08-04T05:06:38.373Z,26.2
2022-08-04T05:08:43.702Z,26.3
2022-08-04T05:09:38.360Z,26.4
2022-08-04T05:10:38.371Z,26.4
2022-08-04T05:11:38.366Z,26.5
2022-08-04T05:14:32.063Z,26.5
2022-08-04T05:14:36.506Z,26.6
2022-08-04T05:14:41.556Z,26.6
2022-08-04T05:15:38.375Z,26.7
2022-08-04T05:16:38.375Z,26.7
2022-08-04T05:17:38.683Z,26.8
2022-08-04T05:18:38.396Z,26.8
2022-08-04T05:19:38.370Z,26.9
2022-08-04T05:20:38.372Z,26.8
2022-08-04T05:21:38.376Z,26.8
2022-08-04T05:22:38.362Z,26.9
2022-08-04T05:23:38.366Z,26.9
2022-08-04T05:24:38.766Z,27
2022-08-04T05:25:38.381Z,27.2
2022-08-04T05:26:38.366Z,27.3
2022-08-04T05:27:40.156Z,27.4
2022-08-04T05:29:38.362Z,27.7
2022-08-04T05:30:38.368Z,27.8
2022-08-04T05:31:38.370Z,27.7
2022-08-04T05:32:38.385Z,27.8
2022-08-04T05:33:38.377Z,27.9
2022-08-04T05:34:38.368Z,28
2022-08-04T05:36:18.076Z,28.1
2022-08-04T05:36:41.232Z,28.1
2022-08-04T05:37:38.376Z,28.2
2022-08-04T05:38:38.374Z,28.2
2022-08-04T05:39:38.531Z,28.3
2022-08-04T05:40:38.375Z,28.3
2022-08-04T05:41:45.252Z,28.4
2022-08-04T05:42:38.373Z,28.5
2022-08-04T05:43:38.385Z,28.6
2022-08-04T05:44:38.381Z,28.6
2022-08-04T05:45:39.011Z,28.5
2022-08-04T05:46:38.384Z,28.4
2022-08-04T05:47:38.378Z,28.5
2022-08-04T05:48:38.386Z,28.5
2022-08-04T05:50:38.388Z,28.8
2022-08-04T05:51:38.391Z,29
2022-08-04T05:52:38.382Z,29.2
2022-08-04T05:53:38.378Z,29.4
2022-08-04T05:54:38.383Z,29.6
2022-08-04T05:55:56.665Z,29.8
2022-08-04T05:56:38.392Z,30
2022-08-04T05:57:38.388Z,30.1
2022-08-04T05:58:38.378Z,30.2
2022-08-04T05:59:38.383Z,30.3
2022-08-04T06:00:41.214Z,30.4
2022-08-04T06:01:55.394Z,30.5
2022-08-04T06:02:38.389Z,30.7
2022-08-04T06:03:38.384Z,30.8
2022-08-04T06:04:38.378Z,30.9
2022-08-04T06:05:38.382Z,31
2022-08-04T06:06:38.388Z,31
2022-08-04T06:08:11.949Z,31
2022-08-04T06:08:38.391Z,31.1
2022-08-04T06:09:38.397Z,31.2
2022-08-04T06:11:59.200Z,31.5
2022-08-04T06:12:38.393Z,31.7
2022-08-04T06:13:49.375Z,31.9
2022-08-04T06:14:38.394Z,32.2
2022-08-04T06:15:38.387Z,32.4
2022-08-04T06:16:38.392Z,32.7
2022-08-04T06:18:35.474Z,32.9
2022-08-04T06:20:01.259Z,33.2
2022-08-04T06:20:03.633Z,33.1
2022-08-04T06:20:38.390Z,33.4
2022-08-04T06:21:38.392Z,33.6
2022-08-04T06:22:38.395Z,33.7
2022-08-04T06:23:38.399Z,33.7
2022-08-04T06:24:38.390Z,33.7
2022-08-04T06:25:38.405Z,33.8
2022-08-04T06:26:38.395Z,33.7
2022-08-04T06:27:38.396Z,33.5
2022-08-04T06:28:38.401Z,33.5
2022-08-04T06:29:38.399Z,33.6
2022-08-04T06:30:38.394Z,33.6
2022-08-04T06:32:28.332Z,33.6
2022-08-04T06:32:41.497Z,33.5
2022-08-04T06:33:54.526Z,33.5
2022-08-04T06:34:38.392Z,33.5
2022-08-04T06:35:38.398Z,33.6
2022-08-04T06:36:38.397Z,33.6
2022-08-04T06:37:42.895Z,33.8
2022-08-04T06:38:38.396Z,34
2022-08-04T06:39:38.479Z,34
2022-08-04T06:40:38.407Z,34.3
2022-08-04T06:41:38.408Z,34.5
2022-08-04T06:43:42.896Z,34.7
2022-08-04T06:44:38.402Z,34.8
2022-08-04T06:45:38.401Z,34.9
2022-08-04T06:46:38.405Z,35.1
2022-08-04T06:47:38.400Z,35.1
2022-08-04T06:48:38.416Z,35.1
2022-08-04T06:49:55.136Z,34.9
2022-08-04T06:51:24.364Z,34.8
2022-08-04T06:51:46.985Z,34.5
2022-08-04T06:52:38.410Z,34.3
2022-08-04T06:53:38.407Z,34.1
2022-08-04T06:54:38.413Z,34
2022-08-04T06:55:38.409Z,34.2
2022-08-04T06:56:38.401Z,34.2
2022-08-04T06:57:38.413Z,34.3
2022-08-04T06:58:38.422Z,34.3
2022-08-04T06:59:38.408Z,34.3
2022-08-04T07:00:38.420Z,34.3
2022-08-04T07:01:38.453Z,34.2
2022-08-04T07:02:38.414Z,34
2022-08-04T07:04:38.410Z,33.7
2022-08-04T07:05:38.411Z,33.7
2022-08-04T07:06:38.420Z,33.6
2022-08-04T07:07:57.084Z,33.6
2022-08-04T07:08:38.420Z,33.4
2022-08-04T07:09:38.418Z,33.4
2022-08-04T07:10:38.415Z,33.5
2022-08-04T07:11:39.751Z,33.6
2022-08-04T07:12:38.422Z,33.8
2022-08-04T07:13:41.999Z,33.9
2022-08-04T07:14:38.420Z,34.1
2022-08-04T07:15:38.417Z,34.1
2022-08-04T07:16:38.419Z,34.3
2022-08-04T07:17:38.421Z,34.3
2022-08-04T07:18:38.408Z,34.3
2022-08-04T07:19:38.415Z,34.1
2022-08-04T07:20:38.426Z,34.1
2022-08-04T07:21:38.418Z,34
2022-08-04T07:22:38.418Z,33.9
2022-08-04T07:23:38.416Z,33.8
2022-08-04T07:26:11.450Z,33.7
2022-08-04T07:26:38.427Z,33.6
2022-08-04T07:27:48.341Z,33.6
2022-08-04T07:28:38.424Z,33.6
2022-08-04T07:29:38.436Z,33.6
2022-08-04T07:30:38.427Z,33.6
2022-08-04T07:31:38.432Z,33.5
2022-08-04T07:32:38.433Z,33.5
2022-08-04T07:33:38.424Z,33.5
2022-08-04T07:34:38.422Z,33.4
2022-08-04T07:36:05.070Z,33.4
2022-08-04T07:36:50.697Z,33.4
2022-08-04T07:37:39.984Z,33.4
2022-08-04T07:38:46.575Z,33.5
2022-08-04T07:39:48.314Z,33.5
2022-08-04T07:40:38.431Z,33.6
2022-08-04T07:41:38.583Z,33.7
2022-08-04T07:42:38.453Z,33.8
2022-08-04T07:43:38.431Z,33.8
2022-08-04T07:44:38.427Z,33.8
2022-08-04T07:46:38.433Z,33.9
2022-08-04T07:47:38.435Z,33.9
2022-08-04T07:48:38.432Z,33.8
2022-08-04T07:49:54.407Z,34
2022-08-04T07:50:38.427Z,34.1
2022-08-04T07:51:38.432Z,34.2
2022-08-04T07:52:40.047Z,34.4
2022-08-04T07:53:53.369Z,34.6
2022-08-04T07:54:38.435Z,34.8
2022-08-04T07:55:38.445Z,35.1
2022-08-04T07:56:38.442Z,35.5
2022-08-04T07:57:41.084Z,35.8
2022-08-04T07:58:38.441Z,36.3
2022-08-04T07:59:38.460Z,36.9
2022-08-04T08:00:38.788Z,37.5
2022-08-04T08:01:38.471Z,38
2022-08-04T08:02:38.446Z,38.6
2022-08-04T08:03:38.501Z,39
2022-08-04T08:04:38.443Z,39.5
2022-08-04T08:05:54.703Z,39.9
2022-08-04T08:06:42.613Z,40.3
2022-08-04T08:07:38.439Z,40.6
2022-08-04T08:09:38.449Z,40.9
2022-08-04T08:10:38.454Z,41.2
2022-08-04T08:12:38.226Z,41.7
2022-08-04T08:12:51.613Z,42
2022-08-04T08:13:38.451Z,42.5
2022-08-04T08:14:38.445Z,43
2022-08-04T08:15:38.463Z,43.4
2022-08-04T08:16:38.444Z,43.7
2022-08-04T08:17:58.955Z,43.9
2022-08-04T08:18:38.457Z,44.3
2022-08-04T08:19:38.455Z,44.7
2022-08-04T08:20:38.444Z,45
2022-08-04T08:21:59.587Z,45.3
2022-08-04T08:22:38.447Z,45.6
2022-08-04T08:23:38.471Z,46
2022-08-04T08:24:38.445Z,46.2
2022-08-04T08:25:38.454Z,46.5
2022-08-04T08:26:38.456Z,46.8
2022-08-04T08:27:38.471Z,47.2
2022-08-04T08:28:38.457Z,47.5
2022-08-04T08:30:38.451Z,47.7
2022-08-04T08:31:55.632Z,47.8
2022-08-04T08:32:38.509Z,48
2022-08-04T08:33:38.462Z,48.1
2022-08-04T08:34:38.454Z,48.3
2022-08-04T08:35:39.692Z,48.7
2022-08-04T08:36:38.451Z,49
2022-08-04T08:37:42.041Z,49.2
2022-08-04T08:38:38.457Z,49.5
2022-08-04T08:39:38.508Z,49.6
2022-08-04T08:40:41.163Z,49.5
2022-08-04T08:41:38.474Z,49.3
2022-08-04T08:42:38.468Z,49.1
2022-08-04T08:44:38.470Z,48.8
2022-08-04T08:45:38.477Z,48.7
2022-08-04T08:46:49.450Z,48.2
2022-08-04T08:47:58.436Z,47.9
2022-08-04T08:48:38.465Z,47.7
2022-08-04T08:50:01.163Z,47.5
2022-08-04T08:51:38.483Z,47.4
2022-08-04T08:52:56.207Z,47.7
2022-08-04T08:53:38.473Z,47.9
2022-08-04T08:54:38.470Z,48.3
2022-08-04T08:55:38.473Z,48.6
2022-08-04T08:56:38.475Z,49.1
2022-08-04T08:57:42.464Z,49.3
2022-08-04T08:58:38.476Z,49.6
2022-08-04T08:59:38.480Z,49.7
2022-08-04T09:00:38.471Z,49.9
2022-08-04T09:01:38.530Z,50.1
2022-08-04T09:02:38.473Z,50.4
2022-08-04T09:03:38.490Z,50.8
2022-08-04T09:04:38.471Z,51.1
2022-08-04T09:05:38.469Z,51.4
2022-08-04T09:06:38.479Z,51.5
2022-08-04T09:07:38.482Z,51.8
2022-08-04T09:08:38.480Z,52
2022-08-04T09:09:38.473Z,52.2
2022-08-04T09:10:38.482Z,52.2
2022-08-04T09:12:38.482Z,52.1
2022-08-04T09:13:38.483Z,52.1
2022-08-04T09:14:38.474Z,51.9
2022-08-04T09:15:38.477Z,51.9
2022-08-04T09:16:38.480Z,51.9
2022-08-04T09:17:38.492Z,52.1
2022-08-04T09:18:38.479Z,52.1
2022-08-04T09:19:39.564Z,51.6
2022-08-04T09:20:38.480Z,50.9
2022-08-04T09:21:38.483Z,50.6
2022-08-04T09:23:38.484Z,49.8
2022-08-04T09:24:38.499Z,49.5
2022-08-04T09:25:38.488Z,49.4
2022-08-04T09:26:38.487Z,49
2022-08-04T09:27:38.724Z,48.7
2022-08-04T09:28:53.674Z,48
2022-08-04T09:29:38.503Z,47.3
2022-08-04T09:30:38.480Z,46.5
2022-08-04T09:31:48.756Z,45.7
2022-08-04T09:33:44.569Z,44.7
2022-08-04T09:34:38.490Z,44.3
2022-08-04T09:35:38.490Z,43.8
2022-08-04T09:36:38.489Z,43.4
2022-08-04T09:37:45.931Z,43
2022-08-04T09:38:38.519Z,42.7
2022-08-04T09:39:38.580Z,42.5
2022-08-04T09:40:52.505Z,42.3
2022-08-04T09:41:48.000Z,42.1
2022-08-04T09:42:38.497Z,42.1
2022-08-04T09:44:42.101Z,42
2022-08-04T09:44:51.225Z,41.9
2022-08-04T09:45:42.632Z,41.9
2022-08-04T09:46:38.501Z,41.6
2022-08-04T09:47:39.770Z,41.3
2022-08-04T09:48:38.502Z,41.2
2022-08-04T09:49:38.492Z,41.1
2022-08-04T09:50:38.515Z,41.2
2022-08-04T09:51:57.801Z,41.3
2022-08-04T09:52:38.500Z,41.5
2022-08-04T09:54:38.498Z,42.2
2022-08-04T09:55:38.511Z,42.6
2022-08-04T09:56:38.507Z,43
2022-08-04T09:57:38.506Z,43.2
2022-08-04T09:58:38.505Z,43.1
2022-08-04T09:59:38.521Z,42.9
2022-08-04T10:00:41.384Z,43
2022-08-04T10:01:38.513Z,43.3
2022-08-04T10:02:38.553Z,43.9
2022-08-04T10:03:38.599Z,44.4
2022-08-04T10:05:38.505Z,45.2
2022-08-04T10:06:38.512Z,45.8
2022-08-04T10:07:38.515Z,46.5
2022-08-04T10:08:38.513Z,46.8
2022-08-04T10:09:38.518Z,47.1
2022-08-04T10:10:38.518Z,47.4
2022-08-04T10:11:55.800Z,47.4
2022-08-04T10:12:38.510Z,47.5
2022-08-04T10:13:38.516Z,47.9
2022-08-04T10:15:38.519Z,48.9
2022-08-04T10:16:38.517Z,49.4
2022-08-04T10:17:38.515Z,49.8
2022-08-04T10:18:38.513Z,50.1
2022-08-04T10:19:38.522Z,50.5
2022-08-04T10:20:46.353Z,50.8
2022-08-04T10:21:50.629Z,51.3
2022-08-04T10:22:55.413Z,51.5
2022-08-04T10:23:55.691Z,51.8
2022-08-04T10:24:38.518Z,51.9
2022-08-04T10:26:06.095Z,52.3
2022-08-04T10:26:38.517Z,52.4
2022-08-04T10:27:38.523Z,52.3
2022-08-04T10:28:38.531Z,52.4
2022-08-04T10:29:38.518Z,52.6
2022-08-04T10:30:38.524Z,52.4
2022-08-04T10:31:38.524Z,52.2
2022-08-04T10:32:42.828Z,51.8
2022-08-04T10:33:38.525Z,51.4
2022-08-04T10:34:38.533Z,51
2022-08-04T10:36:38.528Z,50.3
2022-08-04T10:37:54.627Z,49.9
2022-08-04T10:38:38.530Z,49.5
2022-08-04T10:39:43.211Z,49.1
2022-08-04T10:40:38.526Z,48.9
2022-08-04T10:41:38.607Z,49.1
2022-08-04T10:42:38.529Z,49.4
2022-08-04T10:44:41.914Z,49.8
2022-08-04T10:45:38.529Z,49.8
2022-08-04T10:46:38.532Z,49.9
2022-08-04T10:47:38.537Z,49.7
2022-08-04T10:48:38.526Z,49.6
2022-08-04T10:49:38.541Z,49.5
2022-08-04T10:51:57.481Z,48.8
2022-08-04T10:52:38.532Z,48.2
2022-08-04T10:53:38.544Z,47.7
2022-08-04T10:54:38.528Z,47
2022-08-04T10:56:07.195Z,46.5
2022-08-04T10:58:47.979Z,45.1
2022-08-04T10:59:38.542Z,44.6
2022-08-04T11:00:38.538Z,44
2022-08-04T11:02:01.283Z,43.7
2022-08-04T11:02:38.614Z,43.3
2022-08-04T11:03:38.543Z,43
2022-08-04T11:04:38.537Z,42.7
2022-08-04T11:05:43.985Z,42.5
2022-08-04T11:06:38.556Z,42.6
2022-08-04T11:07:38.542Z,43.1
2022-08-04T11:08:38.536Z,43.8
2022-08-04T11:09:38.542Z,44.6
2022-08-04T11:10:38.550Z,45.3
2022-08-04T11:12:00.917Z,45.8
2022-08-04T11:12:38.549Z,46.1
2022-08-04T11:13:38.538Z,46.3
2022-08-04T11:14:38.883Z,46.3
2022-08-04T11:16:38.551Z,45.7
2022-08-04T11:18:38.545Z,44.9
2022-08-04T11:19:42.775Z,44.5
2022-08-04T11:20:38.576Z,44.4
2022-08-04T11:21:38.566Z,44.2
2022-08-04T11:23:38.550Z,43.5
2022-08-04T11:24:38.558Z,43.3
2022-08-04T11:25:38.558Z,43
2022-08-04T11:26:38.573Z,42.8
2022-08-04T11:27:38.566Z,42.6
2022-08-04T11:28:38.562Z,42.3
2022-08-04T11:30:38.560Z,42.1
2022-08-04T11:31:38.564Z,42
2022-08-04T11:32:38.588Z,41.9
2022-08-04T11:33:38.553Z,41.9
2022-08-04T11:34:38.551Z,41.8
2022-08-04T11:35:38.560Z,41.8
2022-08-04T11:36:38.559Z,41.9
2022-08-04T11:37:38.557Z,41.9
2022-08-04T11:40:38.575Z,41.7
2022-08-04T11:41:38.561Z,41.6
2022-08-04T11:42:38.562Z,41.5
2022-08-04T11:44:01.110Z,41.4
2022-08-04T11:44:38.571Z,41.2
2022-08-04T11:45:38.558Z,40.9
2022-08-04T11:46:38.569Z,40.6
2022-08-04T11:47:38.571Z,40.6
2022-08-04T11:48:38.570Z,40.5
2022-08-04T11:49:56.662Z,40.5
2022-08-04T11:50:38.580Z,40.4
2022-08-04T11:51:38.561Z,40.3
2022-08-04T11:52:38.567Z,40.2
2022-08-04T11:53:38.572Z,40.2
2022-08-04T11:54:38.572Z,40.1
2022-08-04T11:56:07.632Z,39.9
2022-08-04T11:56:38.692Z,39.8
2022-08-04T11:57:38.580Z,39.7
2022-08-04T11:58:38.590Z,39.5
2022-08-04T12:00:38.601Z,39.1
2022-08-04T12:01:38.570Z,38.9
2022-08-04T12:02:38.612Z,38.7
2022-08-04T12:03:38.573Z,38.5
2022-08-04T12:05:38.580Z,38.2
2022-08-04T12:06:38.580Z,38.1
2022-08-04T12:07:41.395Z,38.2
2022-08-04T12:08:38.583Z,38.2
2022-08-04T12:09:38.579Z,38
2022-08-04T12:10:42.538Z,37.9
2022-08-04T12:12:38.579Z,37.7
2022-08-04T12:13:38.582Z,37.6
2022-08-04T12:14:38.576Z,37.6
2022-08-04T12:15:38.575Z,37.5
2022-08-04T12:16:38.586Z,37.5
2022-08-04T12:17:52.303Z,37.4
2022-08-04T12:18:38.581Z,37.3
2022-08-04T12:20:03.364Z,37.3
2022-08-04T12:20:41.141Z,37.1
2022-08-04T12:21:38.579Z,37
2022-08-04T12:22:41.027Z,36.8
2022-08-04T12:23:38.586Z,36.8
2022-08-04T12:24:39.732Z,36.8
2022-08-04T12:25:42.012Z,36.7
2022-08-04T12:26:38.584Z,36.6
2022-08-04T12:27:38.586Z,36.4
2022-08-04T12:29:07.238Z,36.1
2022-08-04T12:29:38.587Z,35.9
2022-08-04T12:30:59.111Z,35.8
2022-08-04T12:31:38.581Z,35.7
2022-08-04T12:32:38.587Z,35.5
2022-08-04T12:34:38.589Z,35.3
2022-08-04T12:35:38.588Z,35.2
2022-08-04T12:36:38.592Z,35.1
2022-08-04T12:37:38.585Z,35.1
2022-08-04T12:38:38.594Z,35
2022-08-04T12:40:21.338Z,35
2022-08-04T12:40:38.657Z,35
2022-08-04T12:41:38.613Z,35
2022-08-04T12:42:38.605Z,35
2022-08-04T12:43:38.592Z,35
2022-08-04T12:44:39.140Z,35
2022-08-04T12:45:38.628Z,35.1
2022-08-04T12:46:38.607Z,35.2
2022-08-04T12:47:38.729Z,35.4
2022-08-04T12:48:38.595Z,35.6
2022-08-04T12:49:38.594Z,35.8
2022-08-04T12:50:38.639Z,35.9
2022-08-04T12:52:08.419Z,36
2022-08-04T12:53:00.469Z,36.1
2022-08-04T12:53:51.244Z,36.2
2022-08-04T12:55:38.654Z,36.4
2022-08-04T12:56:38.606Z,36.6
2022-08-04T12:57:38.592Z,36.6
2022-08-04T12:58:41.876Z,36.7
2022-08-04T12:59:38.623Z,36.6
2022-08-04T13:00:41.638Z,36.7
2022-08-04T13:02:08.204Z,36.6
2022-08-04T13:02:38.697Z,36.6
2022-08-04T13:03:38.599Z,36.6
2022-08-04T13:04:38.598Z,36.6
2022-08-04T13:05:38.612Z,36.7
2022-08-04T13:06:38.611Z,36.7
2022-08-04T13:07:38.605Z,36.8
2022-08-04T13:08:38.602Z,36.9
2022-08-04T13:09:38.607Z,36.9
2022-08-04T13:10:38.612Z,36.9
2022-08-04T13:11:38.608Z,37
2022-08-04T13:12:38.605Z,37
2022-08-04T13:13:38.609Z,37
2022-08-04T13:16:38.605Z,37
2022-08-04T13:17:39.582Z,37
2022-08-04T13:18:38.617Z,36.9
2022-08-04T13:19:41.112Z,36.8
2022-08-04T13:20:38.612Z,36.8
2022-08-04T13:21:50.020Z,36.8
2022-08-04T13:22:38.615Z,36.9
2022-08-04T13:24:56.617Z,37
2022-08-04T13:26:43.211Z,36.9
2022-08-04T13:26:43.533Z,36.9
2022-08-04T13:27:43.077Z,37
2022-08-04T13:28:38.605Z,37.1
2022-08-04T13:30:00.573Z,37.1
2022-08-04T13:30:25.268Z,37
2022-08-04T13:30:38.609Z,37.2
2022-08-04T13:31:38.615Z,37.3
2022-08-04T13:32:38.611Z,37.3
2022-08-04T13:33:38.616Z,37.3
2022-08-04T13:34:38.624Z,37.3
2022-08-04T13:37:38.669Z,37.4
2022-08-04T13:38:38.621Z,37.4
2022-08-04T13:39:38.681Z,37.4
2022-08-04T13:40:38.618Z,37.4
2022-08-04T13:41:38.614Z,37.5
2022-08-04T13:42:38.688Z,37.5
2022-08-04T13:44:18.948Z,37.5
2022-08-04T13:44:38.680Z,37.6
2022-08-04T13:45:38.826Z,37.5
2022-08-04T13:46:38.639Z,37.6
2022-08-04T13:47:38.620Z,37.5
2022-08-04T13:48:38.634Z,37.4
2022-08-04T13:49:54.608Z,37.4
2022-08-04T13:50:38.621Z,37.4
2022-08-04T13:51:57.305Z,37.3
2022-08-04T13:52:38.628Z,37.3
2022-08-04T13:53:38.635Z,37.3
2022-08-04T13:54:42.406Z,37.3
2022-08-04T13:55:39.990Z,37.3
2022-08-04T13:56:38.647Z,37.2
2022-08-04T13:58:40.909Z,37.1
2022-08-04T13:59:38.624Z,37
2022-08-04T14:00:38.657Z,37
2022-08-04T14:01:38.666Z,36.9
2022-08-04T14:02:38.631Z,36.9
2022-08-04T14:03:54.334Z,36.9
2022-08-04T14:04:38.633Z,36.9
2022-08-04T14:05:59.136Z,36.9
2022-08-04T14:06:38.622Z,36.9
2022-08-04T14:07:38.647Z,37
2022-08-04T14:08:38.635Z,37.1
2022-08-04T14:09:38.633Z,37.1
2022-08-04T14:10:38.627Z,36.9
2022-08-04T14:12:10.826Z,36.9
2022-08-04T14:12:46.052Z,36.9
2022-08-04T14:13:41.023Z,36.9
2022-08-04T14:14:38.642Z,36.9
2022-08-04T14:16:02.261Z,36.9
2022-08-04T14:16:38.644Z,36.9
2022-08-04T14:17:38.641Z,36.9
2022-08-04T14:19:38.647Z,36.7
2022-08-04T14:20:38.635Z,36.6